createdAt,value
2018-08-19T00:01:58.000Z,93.50
2018-08-19T00:04:26.757Z,93.50
2018-08-19T00:06:55.981Z,93.40
2018-08-19T00:09:24.774Z,93.20
2018-08-19T00:11:53.505Z,93.00
2018-08-19T00:14:29.822Z,93.10
2018-08-19T00:17:00.704Z,93.30
2018-08-19T00:19:30.322Z,93.20
2018-08-19T00:21:59.056Z,93.40
2018-08-19T00:24:27.799Z,93.60
2018-08-19T00:26:56.559Z,93.80
2018-08-19T00:29:43.625Z,94.00
2018-08-19T00:32:13.556Z,94.00
2018-08-19T00:34:42.303Z,94.10
2018-08-19T00:37:10.994Z,94.30
2018-08-19T00:39:39.709Z,94.60
2018-08-19T00:42:08.397Z,94.80
2018-08-19T00:44:37.148Z,94.90
2018-08-19T00:47:05.920Z,95.10
2018-08-19T00:49:34.688Z,95.00
2018-08-19T00:52:03.582Z,95.20
2018-08-19T00:54:32.869Z,95.30
2018-08-19T00:57:02.003Z,95.30
2018-08-19T00:59:31.901Z,95.30
2018-08-19T01:02:00.741Z,95.30
2018-08-19T01:04:29.497Z,95.80
2018-08-19T01:06:59.318Z,96.00
2018-08-19T01:09:30.836Z,96.10
2018-08-19T01:12:03.747Z,96.00
2018-08-19T01:14:37.752Z,96.20
2018-08-19T01:17:08.994Z,96.10
2018-08-19T01:19:41.318Z,96.30
2018-08-19T01:22:17.298Z,96.40
2018-08-19T01:24:48.133Z,96.60
2018-08-19T01:27:25.681Z,96.70
2018-08-19T01:30:08.379Z,96.50
2018-08-19T01:32:38.702Z,96.60
2018-08-19T01:35:07.541Z,96.60
2018-08-19T01:37:38.146Z,96.60
2018-08-19T01:40:09.865Z,96.80
2018-08-19T01:42:38.662Z,97.20
2018-08-19T01:45:08.462Z,97.30
2018-08-19T01:47:37.288Z,97.60
2018-08-19T01:50:13.076Z,97.60
2018-08-19T01:52:42.457Z,97.80
2018-08-19T01:55:11.281Z,97.60
2018-08-19T01:57:44.856Z,97.50
2018-08-19T02:00:14.348Z,97.90
2018-08-19T02:03:08.441Z,98.20
2018-08-19T02:05:37.184Z,98.30
2018-08-19T02:08:06.052Z,98.70
2018-08-19T02:10:35.382Z,98.70
2018-08-19T02:13:04.259Z,98.90
2018-08-19T02:15:33.483Z,99.20
2018-08-19T02:18:06.596Z,99.20
2018-08-19T02:20:38.447Z,99.50
2018-08-19T02:23:08.745Z,99.50
2018-08-19T02:25:41.479Z,99.40
2018-08-19T02:28:11.184Z,99.60
2018-08-19T02:30:48.686Z,99.90
2018-08-19T02:33:17.397Z,99.90
2018-08-19T02:35:50.348Z,99.90
2018-08-19T02:38:19.367Z,99.90
2018-08-19T02:40:51.510Z,99.90
2018-08-19T02:43:21.090Z,99.90
2018-08-19T02:45:49.874Z,99.90
2018-08-19T02:48:19.306Z,99.90
2018-08-19T02:50:48.017Z,99.90
2018-08-19T02:53:16.772Z,99.90
2018-08-19T02:55:45.492Z,99.90
2018-08-19T02:58:23.721Z,99.90
2018-08-19T03:00:53.192Z,99.90
2018-08-19T03:03:21.933Z,99.90
2018-08-19T03:05:54.349Z,99.90
2018-08-19T03:08:23.028Z,99.90
2018-08-19T03:10:51.777Z,99.90
2018-08-19T03:13:20.497Z,99.90
2018-08-19T03:15:49.680Z,99.90
2018-08-19T03:18:18.399Z,99.90
2018-08-19T03:20:47.137Z,99.90
2018-08-19T03:23:15.891Z,99.90
2018-08-19T03:25:44.604Z,99.90
2018-08-19T03:28:13.352Z,99.90
2018-08-19T03:30:59.852Z,99.90
2018-08-19T03:33:28.692Z,99.90
2018-08-19T03:35:57.467Z,99.90
2018-08-19T03:38:27.213Z,99.90
2018-08-19T03:40:57.341Z,99.90
2018-08-19T03:43:26.225Z,99.90
2018-08-19T03:45:54.917Z,99.90
2018-08-19T03:48:23.624Z,99.90
2018-08-19T03:50:52.373Z,99.90
2018-08-19T03:53:21.080Z,99.90
2018-08-19T03:55:49.798Z,99.90
2018-08-19T03:58:18.532Z,99.90
2018-08-19T04:00:47.324Z,99.90
2018-08-19T04:03:21.380Z,99.90
2018-08-19T04:05:56.617Z,99.90
2018-08-19T04:08:33.259Z,99.90
2018-08-19T04:11:05.002Z,99.90
2018-08-19T04:13:35.976Z,99.90
2018-08-19T04:16:05.995Z,99.90
2018-08-19T04:18:37.987Z,99.90
2018-08-19T04:21:09.455Z,99.90
2018-08-19T04:23:40.751Z,99.90
2018-08-19T04:26:09.470Z,99.90
2018-08-19T04:28:39.462Z,99.90
2018-08-19T04:31:25.205Z,99.90
2018-08-19T04:33:54.807Z,99.90
2018-08-19T04:36:24.777Z,99.90
2018-08-19T04:38:53.508Z,99.90
2018-08-19T04:41:22.222Z,99.90
2018-08-19T04:43:51.092Z,99.90
2018-08-19T04:46:19.792Z,99.90
2018-08-19T04:48:48.813Z,99.90
2018-08-19T04:51:17.520Z,99.90
2018-08-19T04:53:46.237Z,99.90
2018-08-19T04:56:15.073Z,99.90
2018-08-19T04:58:43.798Z,99.90
2018-08-19T05:01:13.193Z,99.90
2018-08-19T05:03:44.182Z,99.90
2018-08-19T05:06:12.956Z,99.90
2018-08-19T05:08:41.670Z,99.90
2018-08-19T05:11:10.397Z,99.90
2018-08-19T05:13:39.103Z,99.90
2018-08-19T05:16:07.793Z,99.90
2018-08-19T05:18:36.548Z,99.90
2018-08-19T05:21:10.465Z,99.90
2018-08-19T05:23:39.245Z,99.90
2018-08-19T05:26:08.085Z,99.90
2018-08-19T05:28:36.848Z,99.90
2018-08-19T05:31:05.621Z,99.90
2018-08-19T05:33:34.390Z,99.90
2018-08-19T05:36:03.142Z,99.90
2018-08-19T05:38:32.980Z,99.90
2018-08-19T05:41:02.285Z,99.90
2018-08-19T05:43:31.521Z,99.90
2018-08-19T05:46:01.321Z,99.90
2018-08-19T05:48:30.414Z,99.90
2018-08-19T05:50:59.397Z,99.90
2018-08-19T05:53:28.162Z,99.90
2018-08-19T05:55:56.944Z,99.90
2018-08-19T05:58:25.667Z,99.90
2018-08-19T06:01:00.799Z,99.90
2018-08-19T06:03:30.092Z,99.90
2018-08-19T06:05:59.197Z,99.90
2018-08-19T06:08:27.948Z,99.90
2018-08-19T06:10:56.774Z,99.90
2018-08-19T06:13:28.136Z,99.90
2018-08-19T06:15:57.001Z,99.70
2018-08-19T06:18:25.790Z,99.40
2018-08-19T06:20:54.492Z,99.10
2018-08-19T06:23:23.313Z,98.70
2018-08-19T06:25:52.099Z,97.90
2018-08-19T06:28:20.836Z,97.80
2018-08-19T06:30:49.635Z,97.50
2018-08-19T06:33:18.390Z,97.70
2018-08-19T06:35:47.072Z,97.10
2018-08-19T06:38:15.792Z,96.80
2018-08-19T06:40:44.500Z,96.50
2018-08-19T06:43:13.249Z,96.50
2018-08-19T06:45:42.054Z,96.40
2018-08-19T06:48:10.748Z,95.60
2018-08-19T06:50:39.517Z,95.20
2018-08-19T06:53:09.619Z,94.30
2018-08-19T06:55:38.385Z,94.20
2018-08-19T06:58:07.048Z,93.10
2018-08-19T07:00:36.041Z,92.40
2018-08-19T07:03:05.760Z,92.60
2018-08-19T07:05:35.057Z,92.30
2018-08-19T07:08:03.877Z,91.60
2018-08-19T07:10:40.748Z,91.30
2018-08-19T07:13:12.606Z,90.90
2018-08-19T07:15:42.541Z,90.90
2018-08-19T07:18:15.280Z,91.00
2018-08-19T07:20:44.869Z,90.30
2018-08-19T07:23:14.020Z,90.10
2018-08-19T07:25:45.079Z,89.90
2018-08-19T07:28:15.436Z,90.30
2018-08-19T07:30:44.445Z,90.60
2018-08-19T07:33:13.642Z,90.20
2018-08-19T07:35:42.410Z,90.00
2018-08-19T07:38:11.359Z,88.00
2018-08-19T07:40:40.043Z,88.30
2018-08-19T07:43:08.896Z,90.10
2018-08-19T07:45:37.660Z,88.80
2018-08-19T07:48:06.523Z,84.80
2018-08-19T07:50:35.221Z,85.80
2018-08-19T07:53:04.013Z,84.80
2018-08-19T07:55:32.789Z,83.40
2018-08-19T07:58:01.512Z,84.40
2018-08-19T08:00:35.506Z,82.40
2018-08-19T08:03:04.202Z,83.70
2018-08-19T08:05:38.045Z,82.30
2018-08-19T08:08:08.057Z,79.30
2018-08-19T08:10:37.142Z,74.80
2018-08-19T08:13:10.675Z,70.80
2018-08-19T08:15:44.576Z,71.80
2018-08-19T08:18:14.041Z,70.50
2018-08-19T08:20:42.790Z,70.40
2018-08-19T08:23:18.321Z,70.80
2018-08-19T08:25:47.082Z,71.40
2018-08-19T08:28:15.894Z,69.20
2018-08-19T08:30:44.568Z,65.50
2018-08-19T08:33:13.329Z,62.20
2018-08-19T08:35:47.170Z,60.00
2018-08-19T08:38:15.933Z,59.50
2018-08-19T08:40:44.733Z,62.90
2018-08-19T08:43:13.404Z,56.80
2018-08-19T08:45:43.466Z,58.70
2018-08-19T08:48:12.625Z,57.20
2018-08-19T08:50:41.374Z,58.00
2018-08-19T08:53:10.125Z,54.40
2018-08-19T08:55:38.957Z,53.60
2018-08-19T08:58:08.021Z,52.60
2018-08-19T09:00:36.766Z,52.30
2018-08-19T09:03:05.616Z,54.00
2018-08-19T09:05:34.510Z,52.80
2018-08-19T09:08:03.344Z,50.50
2018-08-19T09:10:32.110Z,52.10
2018-08-19T09:13:00.892Z,51.70
2018-08-19T09:15:29.640Z,49.30
2018-08-19T09:17:58.398Z,48.90
2018-08-19T09:20:27.140Z,48.80
2018-08-19T09:22:55.914Z,47.80
2018-08-19T09:25:24.721Z,47.80
2018-08-19T09:27:53.553Z,47.90
2018-08-19T09:30:45.314Z,49.60
2018-08-19T09:33:15.056Z,47.50
2018-08-19T09:35:44.388Z,47.90
2018-08-19T09:38:20.243Z,48.40
2018-08-19T09:40:49.083Z,46.60
2018-08-19T09:43:17.906Z,47.20
2018-08-19T09:45:47.198Z,44.50
2018-08-19T09:48:16.317Z,41.60
2018-08-19T09:50:45.456Z,40.90
2018-08-19T09:53:14.262Z,41.00
2018-08-19T09:55:49.051Z,39.60
2018-08-19T09:58:19.366Z,39.70
2018-08-19T10:00:53.503Z,39.00
2018-08-19T10:03:22.225Z,40.70
2018-08-19T10:05:51.033Z,40.40
2018-08-19T10:08:22.302Z,38.30
2018-08-19T10:10:51.542Z,38.00
2018-08-19T10:13:20.657Z,36.10
2018-08-19T10:15:49.402Z,37.80
2018-08-19T10:18:18.117Z,35.80
2018-08-19T10:20:46.921Z,34.60
2018-08-19T10:23:15.606Z,33.30
2018-08-19T10:25:44.398Z,35.20
2018-08-19T10:28:13.083Z,35.10
2018-08-19T10:30:57.340Z,34.70
2018-08-19T10:33:26.054Z,34.40
2018-08-19T10:35:57.741Z,34.70
2018-08-19T10:38:26.535Z,36.10
2018-08-19T10:41:03.413Z,34.50
2018-08-19T10:43:32.187Z,35.00
2018-08-19T10:46:00.995Z,32.60
2018-08-19T10:48:30.009Z,33.90
2018-08-19T10:51:00.137Z,32.20
2018-08-19T10:53:29.510Z,33.00
2018-08-19T10:55:59.457Z,32.00
2018-08-19T10:58:28.269Z,32.40
2018-08-19T11:00:57.007Z,32.00
2018-08-19T11:03:25.685Z,33.20
2018-08-19T11:05:55.730Z,34.30
2018-08-19T11:08:24.493Z,34.30
2018-08-19T11:10:53.186Z,34.20
2018-08-19T11:13:23.827Z,33.40
2018-08-19T11:15:54.442Z,33.00
2018-08-19T11:18:30.353Z,34.90
2018-08-19T11:21:16.290Z,35.20
2018-08-19T11:23:46.351Z,33.10
2018-08-19T11:26:15.399Z,33.40
2018-08-19T11:28:51.123Z,34.10
2018-08-19T11:31:26.039Z,33.50
2018-08-19T11:33:57.822Z,34.30
2018-08-19T11:36:32.992Z,34.40
2018-08-19T11:39:01.774Z,34.60
2018-08-19T11:41:31.472Z,34.70
2018-08-19T11:44:03.507Z,32.60
2018-08-19T11:46:32.227Z,33.20
2018-08-19T11:49:06.215Z,34.70
2018-08-19T11:51:46.193Z,34.30
2018-08-19T11:54:15.916Z,34.70
2018-08-19T11:56:52.327Z,35.00
2018-08-19T11:59:22.173Z,35.90
2018-08-19T12:01:50.874Z,34.70
2018-08-19T12:04:25.866Z,34.90
2018-08-19T12:06:54.612Z,35.00
2018-08-19T12:09:23.392Z,36.60
2018-08-19T12:11:52.234Z,36.10
2018-08-19T12:14:20.996Z,37.40
2018-08-19T12:16:56.892Z,36.80
2018-08-19T12:19:26.957Z,36.30
2018-08-19T12:21:57.935Z,37.00
2018-08-19T12:24:34.784Z,36.80
2018-08-19T12:27:05.667Z,37.50
2018-08-19T12:29:35.597Z,38.50
2018-08-19T12:32:12.838Z,36.50
2018-08-19T12:34:47.393Z,37.00
2018-08-19T12:37:17.155Z,36.40
2018-08-19T12:39:45.960Z,37.50
2018-08-19T12:42:14.822Z,37.10
2018-08-19T12:44:44.399Z,37.60
2018-08-19T12:47:17.988Z,36.40
2018-08-19T12:49:48.389Z,36.40
2018-08-19T12:52:18.992Z,37.60
2018-08-19T12:55:23.648Z,37.20
2018-08-19T12:58:02.576Z,38.50
2018-08-19T13:00:31.505Z,37.40
2018-08-19T13:03:00.328Z,39.30
2018-08-19T13:05:29.066Z,36.90
2018-08-19T13:07:57.851Z,37.60
2018-08-19T13:10:35.241Z,37.20
2018-08-19T13:13:04.009Z,37.30
2018-08-19T13:15:32.780Z,37.60
2018-08-19T13:18:01.593Z,37.90
2018-08-19T13:20:30.389Z,38.00
2018-08-19T13:23:03.377Z,39.20
2018-08-19T13:25:32.446Z,37.60
2018-08-19T13:28:01.365Z,37.50
2018-08-19T13:30:30.153Z,37.10
2018-08-19T13:32:58.932Z,38.60
2018-08-19T13:35:27.724Z,38.20
2018-08-19T13:37:56.597Z,38.00
2018-08-19T13:40:25.409Z,37.80
2018-08-19T13:42:54.166Z,39.10
2018-08-19T13:45:24.176Z,38.40
2018-08-19T13:47:54.219Z,38.80
2018-08-19T13:50:23.011Z,39.90
2018-08-19T13:52:51.762Z,39.70
2018-08-19T13:55:21.202Z,39.70
2018-08-19T13:57:49.983Z,39.30
2018-08-19T14:00:21.335Z,39.30
2018-08-19T14:02:50.686Z,38.80
2018-08-19T14:05:19.417Z,39.10
2018-08-19T14:07:48.163Z,39.10
2018-08-19T14:10:17.052Z,38.70
2018-08-19T14:12:45.840Z,40.40
2018-08-19T14:15:14.727Z,40.00
2018-08-19T14:17:43.601Z,39.30
2018-08-19T14:20:12.441Z,39.60
2018-08-19T14:22:41.271Z,39.60
2018-08-19T14:25:11.008Z,40.90
2018-08-19T14:27:39.980Z,39.80
2018-08-19T14:30:10.564Z,41.30
2018-08-19T14:32:43.970Z,40.40
2018-08-19T14:35:12.790Z,40.20
2018-08-19T14:37:41.689Z,40.90
2018-08-19T14:40:12.798Z,40.70
2018-08-19T14:42:41.601Z,40.50
2018-08-19T14:45:10.354Z,41.60
2018-08-19T14:47:39.107Z,40.60
2018-08-19T14:50:15.893Z,40.90
2018-08-19T14:52:44.765Z,40.90
2018-08-19T14:55:13.571Z,39.20
2018-08-19T14:57:42.450Z,39.40
2018-08-19T15:00:13.117Z,39.40
2018-08-19T15:02:42.010Z,39.40
2018-08-19T15:05:18.409Z,39.20
2018-08-19T15:07:47.433Z,39.10
2018-08-19T15:10:18.620Z,39.50
2018-08-19T15:12:47.405Z,39.30
2018-08-19T15:15:16.263Z,39.80
2018-08-19T15:17:51.181Z,39.50
2018-08-19T15:20:25.087Z,39.50
2018-08-19T15:23:01.993Z,39.80
2018-08-19T15:25:30.714Z,39.50
2018-08-19T15:27:59.592Z,39.90
2018-08-19T15:30:29.251Z,39.40
2018-08-19T15:32:58.330Z,39.40
2018-08-19T15:35:26.783Z,39.20
2018-08-19T15:37:55.576Z,40.10
2018-08-19T15:40:34.254Z,39.20
2018-08-19T15:43:03.016Z,39.40
2018-08-19T15:45:31.863Z,38.70
2018-08-19T15:48:00.545Z,39.90
2018-08-19T15:50:29.326Z,38.40
2018-08-19T15:52:58.700Z,38.60
2018-08-19T15:55:27.352Z,38.80
2018-08-19T15:57:59.277Z,39.50
2018-08-19T16:00:28.037Z,39.00
2018-08-19T16:02:57.169Z,38.80
2018-08-19T16:05:25.872Z,39.30
2018-08-19T16:07:54.566Z,38.50
2018-08-19T16:10:23.407Z,38.80
2018-08-19T16:12:52.799Z,39.50
2018-08-19T16:15:24.909Z,39.40
2018-08-19T16:17:54.949Z,39.10
2018-08-19T16:20:23.998Z,39.60
2018-08-19T16:22:53.047Z,39.50
2018-08-19T16:25:22.394Z,39.30
2018-08-19T16:27:51.835Z,39.80
2018-08-19T16:30:20.792Z,40.10
2018-08-19T16:32:49.745Z,39.00
2018-08-19T16:35:18.473Z,39.20
2018-08-19T16:37:47.241Z,39.00
2018-08-19T16:40:16.004Z,39.60
2018-08-19T16:42:44.842Z,39.60
2018-08-19T16:45:13.612Z,39.60
2018-08-19T16:47:42.367Z,39.60
2018-08-19T16:50:12.830Z,40.10
2018-08-19T16:52:41.584Z,40.80
2018-08-19T16:55:10.731Z,40.80
2018-08-19T16:57:39.468Z,41.00
2018-08-19T17:00:09.309Z,41.30
2018-08-19T17:02:38.255Z,41.30
2018-08-19T17:05:16.849Z,41.50
2018-08-19T17:07:45.540Z,41.80
2018-08-19T17:10:14.407Z,41.80
2018-08-19T17:12:43.061Z,41.60
2018-08-19T17:15:11.765Z,41.80
2018-08-19T17:17:40.459Z,42.10
2018-08-19T17:20:09.150Z,42.10
2018-08-19T17:22:38.612Z,42.40
2018-08-19T17:25:07.381Z,42.70
2018-08-19T17:27:36.221Z,43.20
2018-08-19T17:30:09.288Z,43.50
2018-08-19T17:32:38.060Z,43.40
2018-08-19T17:35:06.759Z,43.80
2018-08-19T17:37:35.552Z,43.70
2018-08-19T17:40:04.363Z,43.60
2018-08-19T17:42:33.123Z,44.20
2018-08-19T17:45:01.906Z,44.60
2018-08-19T17:47:30.604Z,44.40
2018-08-19T17:49:59.355Z,44.60
2018-08-19T17:52:28.088Z,44.90
2018-08-19T17:54:56.829Z,45.30
2018-08-19T17:57:25.610Z,45.50
2018-08-19T17:59:54.326Z,45.30
2018-08-19T18:02:23.055Z,45.80
2018-08-19T18:04:51.779Z,45.90
2018-08-19T18:07:25.254Z,46.20
2018-08-19T18:09:58.183Z,46.50
2018-08-19T18:12:26.937Z,46.70
2018-08-19T18:14:55.691Z,46.60
2018-08-19T18:17:24.544Z,47.00
2018-08-19T18:19:53.336Z,47.60
2018-08-19T18:22:22.422Z,47.30
2018-08-19T18:25:01.370Z,47.40
2018-08-19T18:27:30.129Z,47.70
2018-08-19T18:29:58.933Z,47.90
2018-08-19T18:32:27.686Z,47.70
2018-08-19T18:34:56.428Z,48.20
2018-08-19T18:37:25.238Z,48.50
2018-08-19T18:39:53.936Z,48.50
2018-08-19T18:42:34.685Z,48.90
2018-08-19T18:45:10.398Z,49.30
2018-08-19T18:47:49.093Z,49.70
2018-08-19T18:50:18.649Z,49.70
2018-08-19T18:52:47.343Z,49.70
2018-08-19T18:55:16.085Z,49.80
2018-08-19T18:57:50.040Z,50.00
2018-08-19T19:00:19.843Z,50.60
2018-08-19T19:02:55.074Z,50.60
2018-08-19T19:05:30.430Z,50.50
2018-08-19T19:08:14.992Z,50.60
2018-08-19T19:10:52.978Z,50.30
2018-08-19T19:13:22.765Z,51.50
2018-08-19T19:15:51.553Z,51.70
2018-08-19T19:18:20.324Z,52.60
2018-08-19T19:20:54.266Z,53.20
2018-08-19T19:23:30.224Z,53.50
2018-08-19T19:25:59.590Z,54.00
2018-08-19T19:28:28.455Z,55.00
2018-08-19T19:31:27.663Z,56.00
2018-08-19T19:34:01.027Z,56.80
2018-08-19T19:36:30.090Z,57.50
2018-08-19T19:38:59.410Z,57.70
2018-08-19T19:41:30.350Z,58.50
2018-08-19T19:43:59.413Z,58.90
2018-08-19T19:46:28.163Z,59.90
2018-08-19T19:48:56.886Z,60.60
2018-08-19T19:51:25.644Z,60.00
2018-08-19T19:53:54.367Z,60.80
2018-08-19T19:56:23.094Z,61.60
2018-08-19T19:58:51.821Z,62.30
2018-08-19T20:01:20.632Z,62.80
2018-08-19T20:03:57.227Z,63.00
2018-08-19T20:06:26.033Z,63.60
2018-08-19T20:08:58.327Z,64.00
2018-08-19T20:11:27.333Z,64.40
2018-08-19T20:13:58.621Z,65.00
2018-08-19T20:16:27.572Z,65.60
2018-08-19T20:18:56.501Z,66.00
2018-08-19T20:21:26.454Z,66.60
2018-08-19T20:23:57.391Z,67.20
2018-08-19T20:26:26.692Z,67.60
2018-08-19T20:28:57.962Z,67.50
2018-08-19T20:31:26.749Z,68.30
2018-08-19T20:33:55.549Z,68.50
2018-08-19T20:36:24.330Z,68.90
2018-08-19T20:38:53.117Z,69.70
2018-08-19T20:41:21.937Z,70.40
2018-08-19T20:43:50.732Z,70.80
2018-08-19T20:46:19.482Z,71.00
2018-08-19T20:48:48.765Z,70.90
2018-08-19T20:51:17.655Z,71.00
2018-08-19T20:53:46.424Z,71.10
2018-08-19T20:56:15.176Z,72.50
2018-08-19T20:58:43.929Z,72.10
2018-08-19T21:01:17.911Z,72.40
2018-08-19T21:03:46.887Z,72.60
2018-08-19T21:06:15.657Z,73.50
2018-08-19T21:08:44.394Z,74.00
2018-08-19T21:11:13.226Z,74.20
2018-08-19T21:13:41.929Z,75.10
2018-08-19T21:16:10.758Z,75.30
2018-08-19T21:18:39.659Z,75.50
2018-08-19T21:21:08.384Z,76.30
2018-08-19T21:23:37.090Z,76.50
2018-08-19T21:26:05.828Z,77.20
2018-08-19T21:28:34.579Z,77.50
2018-08-19T21:31:03.312Z,78.20
2018-08-19T21:33:32.255Z,78.30
2018-08-19T21:36:01.012Z,78.60
2018-08-19T21:38:29.705Z,79.50
2018-08-19T21:40:58.645Z,79.90
2018-08-19T21:43:29.299Z,79.90
2018-08-19T21:45:58.408Z,80.30
2018-08-19T21:48:27.195Z,80.70
2018-08-19T21:50:55.912Z,80.80
2018-08-19T21:53:24.731Z,81.20
2018-08-19T21:55:53.760Z,81.10
2018-08-19T21:58:22.509Z,82.00
2018-08-19T22:00:55.949Z,82.80
2018-08-19T22:03:29.971Z,82.20
2018-08-19T22:05:58.743Z,82.40
2018-08-19T22:08:27.597Z,82.40
2018-08-19T22:10:56.414Z,83.20
2018-08-19T22:13:25.308Z,83.40
2018-08-19T22:15:54.059Z,83.90
2018-08-19T22:18:23.728Z,85.10
2018-08-19T22:21:04.335Z,85.50
2018-08-19T22:23:38.276Z,85.70
2018-08-19T22:26:07.506Z,86.50
2018-08-19T22:28:36.261Z,87.40
2018-08-19T22:31:17.248Z,87.70
2018-08-19T22:33:52.251Z,87.70
2018-08-19T22:36:21.361Z,88.40
2018-08-19T22:38:50.708Z,88.60
2018-08-19T22:41:22.501Z,88.60
2018-08-19T22:43:51.917Z,88.40
2018-08-19T22:46:20.727Z,89.20
2018-08-19T22:48:51.449Z,89.20
2018-08-19T22:51:20.306Z,89.60
2018-08-19T22:53:53.230Z,90.20
2018-08-19T22:56:22.552Z,90.80
2018-08-19T22:58:51.258Z,90.80
2018-08-19T23:01:20.204Z,91.30
2018-08-19T23:03:49.246Z,90.90
2018-08-19T23:06:18.009Z,91.30
2018-08-19T23:08:46.774Z,91.30
2018-08-19T23:11:15.481Z,91.40
2018-08-19T23:13:55.310Z,91.20
2018-08-19T23:16:24.041Z,91.30
2018-08-19T23:18:52.781Z,91.50
2018-08-19T23:21:21.517Z,91.50
2018-08-19T23:23:50.285Z,91.60
2018-08-19T23:26:19.026Z,92.00
2018-08-19T23:28:47.729Z,92.10
2018-08-19T23:31:16.456Z,92.30
2018-08-19T23:33:45.214Z,92.10
2018-08-19T23:36:13.975Z,92.20
2018-08-19T23:38:42.690Z,92.30
2018-08-19T23:41:11.470Z,92.40
2018-08-19T23:43:40.212Z,92.60
2018-08-19T23:46:09.035Z,93.00
2018-08-19T23:48:37.735Z,92.80
2018-08-19T23:51:09.158Z,92.60
2018-08-19T23:53:37.967Z,92.80
2018-08-19T23:56:06.821Z,92.70
2018-08-19T23:58:35.497Z,92.80
